Aviation Digital Data Service (ADDS)

Output produced by METARs form (0438 UTC 22 April 2018)
found at http://aviationweather.gov/adds/metars/
 
KASD 220353Z AUTO 11005KT 10SM OVC011 20/18 A3005 RMK AO2 SLP174 T02000183